Ana Sayfa
METAR-TAF:

METAR-TAF

Havaalanları :

Beatrice Municipal Airport

Beatrice, Nebraska, Amerika Birleşik Devletleri

Enlem: 40-18N, Boylam: 096-45W, yükseklik: 403 m

Güncel hava durumu gözlemi

Rapor saat 03:15 UTC de 24 dakika önce yapıldı.
Rüzgar doğudan 8 kt
Sıcaklık 16°C
Nem 45%
Basınç 1013 hPa
Görüş mesafesi: 16.1 km
Açık gökyüzü
civarda gök gürültülü fırtına

METAR: KBIE 180315Z AUTO 08008KT 10SM VCTS CLR 16/04 A2990 RMK AO2 LTG DSNT E THRU W T01610043

Saat: 22:39 (03:39 UTC)


TAF: eksik

4.000'den fazla havaalanı için hava durumu gözlemleri ve tahminleri (METAR ve TAF raporları).

Kullanılabilir istasyonlar harita üzerinde sarı ve kırmızı noktalarla gösterilir.

İstasyonun adını görmek için fareyi noktanın üzerinde gezdirin.

Sonrasında hava gözlem ve tahminlerini görmek için tıklayın.

Haritayı değiştirmek için: yaklaştırmak için siyah artı işaretli yeşil düğmeye ve uzaklaştırmak için de eksi işaretli düğmeye hızla tıklayın; bitişik haritalar için yeşil okları kullanın.


METAR-TAF: